Broseley, United Kingdom
Current Conditions -  °F | °C
As of 8:50 PM on Tuesday 21 Oct 2014 (Local Time) from EGOS Reporting Station
Few Clouds Few Clouds  
Wind Chill: 40°   Ceiling: Unl
Heat Index: 46°   Visibility: 6mi
Dew Point: 36°   Wind: 15mph
Humidity: 66%   Direction: 300°WNW
Pressure: 30.06"   Gusts: NA
Location:  52.61°N, 2.48°W
Report Text: EGOS 211950Z 30013KT 9999 FEW040 08/02 Q1018 BLU NOSIG
Loading
Personal Weather Stations






























Interactive Weather Map New forecast layout! Learn more

10-Day Weather Forecast

Advertisements
Track Severe Weather on mobile